Flight Track Log - Related Links

Times and Time Zones

All times are in EDT time to prevent confusion due to time zone crossing. See the N184RB flight status page for this flight to view local times or setup timezone preferences in your user account.

Time Position Orientation Groundspeed Altitude Reporting Facility
EDT Latitude Longitude Course Direction KTS MPH feet Rate Location/Type
Sun 12:31:00 PM 29.1167 -80.9705 343° North  Level FlightAware Approximate
Sun 12:32:00 PM 29.1777 -80.9921 343° North  Level FlightAware Approximate
Sun 12:33:00 PM 29.2306 -81.0000 North  Level FlightAware Approximate
Sun 12:33:30 PM 29.0839 -80.8944 60° Northeast 140 161 1,700  Level Jacksonville Center
Sun 12:34:00 PM 29.2907 -81.0204 336° Northwest  Level FlightAware Approximate
Sun 12:34:30 PM 29.1158 -80.9244 321° Northwest 180 207 2,600  Level Jacksonville Center
Sun 12:35:00 PM 29.3505 -81.0460 342° North  Level FlightAware Approximate
Sun 12:35:37 PM 29.1375 -80.9764 296° West 168 193 3,800  Level Jacksonville Center
Sun 12:36:00 PM 29.4111 -81.0687 342° North  Level FlightAware Approximate
Sun 12:36:20 PM 29.1506 -81.0119 293° West 168 193 4,500  Level Jacksonville Center
Sun 12:36:43 PM 29.1592 -81.0331 295° West 168 193 4,800 1,082 Climbing Jacksonville Center
Sun 12:37:00 PM 29.4720 -81.0907 344° North  Level FlightAware Approximate
Sun 12:37:21 PM 29.1700 -81.0639 292° West 172 198 5,600  Level Jacksonville Center
Sun 12:37:43 PM 29.1786 -81.0803 301° West 173 199 5,900 889 Climbing Jacksonville Center
Sun 12:38:00 PM 29.5333 -81.1111 344° North  Level FlightAware Approximate
Sun 12:38:15 PM 29.1872 -81.1064 291° West 168 193 6,400  Level Jacksonville Center
Sun 12:38:43 PM 29.2000 -81.1275 305° West 166 191 6,700 545 Climbing Jacksonville Center
Sun 12:39:43 PM 29.2194 -81.1794 293° West 178 205 7,200 800 Climbing Jacksonville Center
Sun 12:40:43 PM 29.2536 -81.2217 313° West 183 211 8,300 1,000 Climbing Jacksonville Center
Sun 12:41:43 PM 29.2731 -81.2714 294° West 172 198 9,200 850 Climbing Jacksonville Center
Sun 12:42:43 PM 29.2944 -81.3164 299° West 172 198 10,000 750 Climbing Jacksonville Center
Sun 12:43:43 PM 29.3158 -81.3683 295° West 167 192 10,700 750 Climbing Jacksonville Center
Sun 12:44:43 PM 29.3372 -81.4133 299° West 174 200 11,500 750 Climbing Jacksonville Center
Sun 12:45:43 PM 29.3792 -81.4364 334° Northwest 158 182 12,200 750 Climbing Jacksonville Center
Sun 12:46:43 PM 29.4294 -81.4381 358° North 158 182 13,000 850 Climbing Jacksonville Center
Sun 12:47:43 PM 29.4817 -81.4444 354° North 171 197 13,900 900 Climbing Jacksonville Center
Sun 12:48:43 PM 29.5339 -81.4461 358° North 182 209 14,800 900 Climbing Jacksonville Center
Sun 12:49:43 PM 29.5839 -81.4453 North 182 209 15,700 900 Climbing Jacksonville Center
Sun 12:50:43 PM 29.6383 -81.4422 North 177 204 16,600 850 Climbing Jacksonville Center
Sun 12:51:43 PM 29.6903 -81.4367 North 177 204 17,400 750 Climbing Jacksonville Center
Sun 12:52:43 PM 29.7425 -81.4333 North 182 209 18,100 650 Climbing Jacksonville Center
Sun 12:53:43 PM 29.7967 -81.4256 North 182 209 18,700 650 Climbing Jacksonville Center
Sun 12:54:43 PM 29.8531 -81.4222 North 187 215 19,400 700 Climbing Jacksonville Center
Sun 12:55:43 PM 29.9094 -81.4164 North 192 221 20,100 700 Climbing Jacksonville Center
Sun 12:56:43 PM 29.9636 -81.4108 North 197 227 20,800 450 Climbing Jacksonville Center
Sun 12:57:43 PM 30.0219 -81.4075 North 197 227 21,000 450 Climbing Jacksonville Center
Sun 12:58:43 PM 30.0803 -81.3994 North 203 234 21,700 750 Climbing Jacksonville Center
Sun 12:59:43 PM 30.1344 -81.3939 North 198 228 22,500 650 Climbing Jacksonville Center
Sun 01:00:43 PM 30.1908 -81.3883 North 198 228 23,000 533 Climbing Jacksonville Center
Sun 01:02:00 PM 30.2769 -81.3931 357° North  Level FlightAware Approximate
Sun 01:02:43 PM 30.2992 -81.3769 357° North 198 228 24,100  Level Jacksonville Center
Sun 01:03:43 PM 30.3556 -81.3736 North 198 228 24,600 500 Climbing Jacksonville Center
Sun 01:04:43 PM 30.4119 -81.3678 North 198 228 25,100 600 Climbing Jacksonville Center
Sun 01:05:43 PM 30.4703 -81.3622 North 198 228 25,800 700 Climbing Jacksonville Center
Sun 01:06:43 PM 30.5286 -81.3564 North 198 228 26,500 600 Climbing Jacksonville Center
Sun 01:07:43 PM 30.5869 -81.3506 North 198 228 27,000 250 Climbing Jacksonville Center
Sun 01:08:43 PM 30.6517 -81.3447 North 204 235 27,000  Level Jacksonville Center
Sun 01:09:43 PM 30.7206 -81.3389 North 223 257 27,000  Level Jacksonville Center
Sun 01:10:43 PM 30.7914 -81.3353 North 244 281 27,000  Level Jacksonville Center
Sun 01:11:43 PM 30.8628 -81.3558 346° North 250 288 27,000  Level Jacksonville Center
Sun 01:12:43 PM 30.9361 -81.3739 348° North 256 295 27,000  Level Jacksonville Center
Sun 01:13:43 PM 31.0053 -81.3947 346° North 261 300 27,000  Level Jacksonville Center
Sun 01:14:43 PM 31.0764 -81.4153 346° North 261 300 27,000  Level Jacksonville Center
Sun 01:15:43 PM 31.1497 -81.4336 348° North 261 300 27,000  Level Jacksonville Center
Sun 01:16:43 PM 31.2208 -81.4519 348° North 261 300 27,000  Level Jacksonville Center
Sun 01:17:43 PM 31.2922 -81.4728 346° North 261 300 27,000  Level Jacksonville Center
Sun 01:18:43 PM 31.3569 -81.4839 352° North 261 300 27,000  Level Jacksonville Center
Sun 01:19:43 PM 31.4344 -81.5047 347° North 255 293 27,000  Level Jacksonville Center
Sun 01:20:43 PM 31.5036 -81.5208 349° North 262 302 27,000  Level Jacksonville Center
Sun 01:21:43 PM 31.5725 -81.5344 350° North 256 295 27,000  Level Jacksonville Center
Sun 01:22:43 PM 31.6333 -81.5553 344° North 256 295 27,000  Level Jacksonville Center
Sun 01:23:43 PM 31.7003 -81.5717 348° North 247 284 27,000  Level Jacksonville Center
Sun 01:24:43 PM 31.7733 -81.5681 North 239 275 27,000  Level Jacksonville Center
Sun 01:25:43 PM 31.8400 -81.5597 North 249 287 27,000  Level Jacksonville Center
Sun 01:26:43 PM 31.9067 -81.5442 11° North 249 287 27,000  Level Jacksonville Center
Sun 01:27:43 PM 31.9733 -81.5333 North 249 287 27,000  Level Jacksonville Center
Sun 01:28:43 PM 32.0486 -81.5225 North 249 287 27,000  Level Jacksonville Center
Sun 01:29:43 PM 32.1131 -81.5117 North 237 273 27,000  Level Jacksonville Center
Sun 01:30:43 PM 32.1714 -81.5008 North 237 273 27,000  Level Jacksonville Center
Sun 01:31:43 PM 32.2381 -81.4900 North 237 273 27,000  Level Jacksonville Center
Sun 01:32:43 PM 32.3111 -81.4792 North 237 273 27,000  Level Jacksonville Center
Sun 01:33:43 PM 32.3756 -81.4683 North 232 267 27,000  Level Jacksonville Center
Sun 01:34:43 PM 32.4361 -81.4575 North 230 265 27,000  Level Jacksonville Center
Sun 01:35:43 PM 32.4944 -81.4492 North 230 265 27,000  Level Jacksonville Center
Sun 01:36:43 PM 32.5569 -81.4383 North 230 265 27,000  Level Jacksonville Center
Sun 01:37:43 PM 32.6256 -81.4275 North 230 265 27,000  Level Jacksonville Center
Sun 01:38:43 PM 32.6839 -81.4167 North 230 265 27,000  Level Jacksonville Center
Sun 01:39:43 PM 32.7486 -81.4056 North 230 265 27,000  Level Jacksonville Center
Sun 01:40:43 PM 32.8111 -81.3947 North 230 265 27,000  Level Jacksonville Center
Sun 01:41:43 PM 32.8736 -81.3839 North 230 265 27,000  Level Jacksonville Center
Sun 01:42:43 PM 32.9403 -81.3753 North 225 259 27,000  Level Jacksonville Center
Sun 01:43:43 PM 33.0006 -81.3644 North 219 252 27,000  Level Jacksonville Center
Sun 01:44:43 PM 33.0653 -81.3533 North 219 252 27,000  Level Jacksonville Center
Sun 01:45:43 PM 33.1256 -81.3425 North 219 252 27,000  Level Jacksonville Center
Sun 01:46:43 PM 33.1881 -81.3339 North 219 252 27,000  Level Jacksonville Center
Sun 01:47:43 PM 33.2506 -81.3228 North 219 252 27,000  Level Jacksonville Center
Sun 01:48:43 PM 33.3153 -81.3092 10° North 219 252 27,000  Level Jacksonville Center
Sun 01:49:43 PM 33.3778 -81.3031 North 219 252 27,000  Level Jacksonville Center
Sun 01:50:43 PM 33.4403 -81.2894 10° North 219 252 27,000  Level Jacksonville Center
Sun 01:51:43 PM 33.5025 -81.2786 North 219 252 27,000  Level Jacksonville Center
Sun 01:52:43 PM 33.5631 -81.2700 North 219 252 27,000  Level Jacksonville Center
Sun 01:53:43 PM 33.6275 -81.2589 North 219 252 27,000  Level Jacksonville Center
Sun 01:54:43 PM 33.6900 -81.2475 North 219 252 27,000  Level Jacksonville Center
Sun 01:55:43 PM 33.7525 -81.2364 North 219 252 27,000  Level Jacksonville Center
Sun 01:56:43 PM 33.8192 -81.2253 North 224 258 27,000  Level Jacksonville Center
Sun 01:57:43 PM 33.8836 -81.2139 North 224 258 27,000  Level Jacksonville Center
Sun 01:58:43 PM 33.9442 -81.2028 North 229 264 27,000  Level Jacksonville Center
Sun 01:59:43 PM 34.0106 -81.1939 North 229 264 27,000  Level Jacksonville Center
Sun 02:00:43 PM 34.0753 -81.1828 North 234 269 27,000  Level Jacksonville Center
Sun 02:01:43 PM 34.1378 -81.1714 North 234 269 27,000  Level Jacksonville Center
Sun 02:03:57 PM 34.2736 -81.1456 North 236 272 27,000  Level Atlanta Center
Sun 02:04:57 PM 34.3358 -81.1333 North 236 272 27,000  Level Atlanta Center
Sun 02:05:57 PM 34.4089 -81.1258 North 236 272 27,000  Level Atlanta Center
Sun 02:06:57 PM 34.4753 -81.1133 North 236 272 27,000  Level Atlanta Center
Sun 02:07:57 PM 34.5378 -81.1036 North 236 272 27,000  Level Atlanta Center
Sun 02:08:57 PM 34.6042 -81.0886 11° North 236 272 27,000  Level Atlanta Center
Sun 02:09:57 PM 34.6686 -81.0814 North 236 272 27,000  Level Atlanta Center
Sun 02:10:57 PM 34.7350 -81.0664 11° North 236 272 27,000  Level Atlanta Center
Sun 02:11:57 PM 34.7994 -81.0564 North 236 272 27,000  Level Atlanta Center
Sun 02:12:57 PM 34.8575 -81.0469 North 236 272 27,000  Level Atlanta Center
Sun 02:13:57 PM 34.9261 -81.0317 10° North 236 272 27,000  Level Atlanta Center
Sun 02:14:57 PM 34.9906 -81.0242 North 236 272 27,000  Level Atlanta Center
Sun 02:15:57 PM 35.0569 -81.0092 10° North 236 272 27,000  Level Atlanta Center
Sun 02:16:57 PM 35.1236 -80.9992 North 236 272 27,000  Level Atlanta Center
Sun 02:17:57 PM 35.1900 -80.9867 North 236 272 27,000  Level Atlanta Center
Sun 02:18:57 PM 35.2544 -80.9739 North 236 272 27,000  Level Atlanta Center
Sun 02:19:57 PM 35.3231 -80.9611 North 236 272 27,000  Level Atlanta Center
Sun 02:20:57 PM 35.3936 -80.9483 North 236 272 27,000  Level Atlanta Center
Sun 02:21:57 PM 35.4619 -80.9356 North 241 277 27,000  Level Atlanta Center
Sun 02:22:57 PM 35.5286 -80.9231 North 241 277 27,000  Level Atlanta Center
Sun 02:23:57 PM 35.5969 -80.9128 North 236 272 27,000  Level Atlanta Center
Sun 02:24:57 PM 35.6656 -80.8997 North 236 272 27,000  Level Atlanta Center
Sun 02:25:57 PM 35.7319 -80.8869 North 236 272 27,000  Level Atlanta Center
Sun 02:26:57 PM 35.8006 -80.8742 North 241 277 27,000  Level Atlanta Center
Sun 02:27:57 PM 35.8692 -80.8611 North 241 277 27,000  Level Atlanta Center
Sun 02:28:57 PM 35.9375 -80.8483 North 241 277 27,000  Level Atlanta Center
Sun 02:29:57 PM 36.0081 -80.8378 North 241 277 27,000  Level Atlanta Center
Sun 02:30:57 PM 36.0767 -80.8222 10° North 241 277 27,000  Level Atlanta Center
Sun 02:31:57 PM 36.1472 -80.8117 North 246 283 27,000  Level Atlanta Center
Sun 02:32:57 PM 36.2158 -80.8011 North 251 289 27,000  Level Atlanta Center
Sun 02:33:57 PM 36.2883 -80.7856 10° North 257 296 27,000  Level Atlanta Center
Sun 02:34:57 PM 36.3506 -80.7753 North 257 296 27,000  Level Atlanta Center
Sun 02:35:57 PM 36.4211 -80.7619 North 257 296 27,000  Level Atlanta Center
Sun 02:36:57 PM 36.4917 -80.7489 North 257 296 27,000  Level Atlanta Center
Sun 02:38:35 PM 36.6047 -80.7306 North 255 293 27,000  Level Washington Center
Sun 02:39:36 PM 36.6828 -80.7150 North 255 293 27,000  Level Washington Center
Sun 02:40:36 PM 36.7519 -80.7042 North 260 299 27,000  Level Washington Center
Sun 02:41:34 PM 36.8256 -80.6908 North 260 299 27,000  Level Washington Center
Sun 02:42:34 PM 36.8950 -80.6772 North 260 299 27,000  Level Washington Center
Sun 02:43:35 PM 36.9603 -80.6658 North 260 299 27,000  Level Washington Center
Sun 02:44:35 PM 37.0381 -80.6503 North 260 299 27,000  Level Washington Center
Sun 02:45:35 PM 37.0989 -80.6411 North 260 299 27,000  Level Washington Center
Sun 02:46:36 PM 37.1725 -80.6278 North 260 299 27,000  Level Washington Center
Sun 02:47:33 PM 37.2506 -80.6119 North 254 292 27,000  Level Washington Center
Sun 02:48:34 PM 37.3197 -80.6008 North 254 292 27,000  Level Washington Center
Sun 02:49:34 PM 37.3892 -80.5897 North 254 292 27,000  Level Washington Center
Sun 02:50:35 PM 37.4606 -80.5736 10° North 254 292 27,000  Level Washington Center
Sun 02:51:35 PM 37.5236 -80.5619 North 259 298 27,000  Level Washington Center
Sun 02:52:36 PM 37.5931 -80.5508 North 259 298 27,000  Level Washington Center
Sun 02:53:34 PM 37.6625 -80.5369 North 259 298 27,000  Level Washington Center
Sun 02:54:35 PM 37.7339 -80.5233 North 259 298 27,000  Level Washington Center
Sun 02:55:34 PM 37.8097 -80.5097 North 259 298 27,000  Level Washington Center
Sun 02:56:34 PM 37.8811 -80.4961 North 259 298 27,000  Level Washington Center
Sun 02:57:35 PM 37.9506 -80.4822 North 254 292 27,000  Level Washington Center
Sun 02:58:36 PM 38.0219 -80.4683 North 254 292 27,000  Level Washington Center
Sun 02:59:34 PM 38.0850 -80.4567 North 261 300 27,000  Level Washington Center
Sun 03:00:35 PM 38.1564 -80.4456 North 256 295 27,000  Level Washington Center
Sun 03:01:36 PM 38.2258 -80.4289 11° North 256 295 27,000  Level Washington Center
Sun 03:02:34 PM 38.2972 -80.4175 North 256 295 27,000  Level Washington Center
Sun 03:03:34 PM 38.3772 -80.4017 North 256 295 27,000  Level Washington Center
Sun 03:04:35 PM 38.4486 -80.3878 North 256 295 27,000  Level Washington Center
Sun 03:05:33 PM 38.5178 -80.3761 North 256 295 27,000  Level Washington Center
Sun 03:06:34 PM 38.5875 -80.3594 11° North 256 295 27,000  Level Washington Center
Sun 03:07:35 PM 38.6503 -80.3503 North 263 303 27,000  Level Washington Center
Sun 03:08:35 PM 38.7239 -80.3364 North 257 296 27,000  Level Washington Center
Sun 03:09:36 PM 38.8039 -80.3150 12° North 266 306 27,000  Level Washington Center
Sun 03:11:42 PM 38.9417 -80.2847 10° North 256 295 27,000  Level Cleveland Center
Sun 03:12:44 PM 39.0272 -80.2697 North 258 297 27,000  Level Cleveland Center
Sun 03:13:46 PM 39.0981 -80.2564 North 258 297 27,000  Level Cleveland Center
Sun 03:14:49 PM 39.1683 -80.2414 North 256 295 27,000  Level Cleveland Center
Sun 03:15:51 PM 39.2392 -80.2283 North 258 297 27,000  Level Cleveland Center
Sun 03:16:53 PM 39.3094 -80.2147 North 258 297 27,000  Level Cleveland Center
Sun 03:17:55 PM 39.3939 -80.1964 10° North 258 297 27,000  Level Cleveland Center
Sun 03:18:57 PM 39.4644 -80.1831 North 259 298 27,000  Level Cleveland Center
Sun 03:19:59 PM 39.5353 -80.1686 North 258 297 27,000  Level Cleveland Center
Sun 03:21:01 PM 39.6056 -80.1536 North 257 296 27,000 -194 Level Cleveland Center
Sun 03:22:03 PM 39.6831 -80.1394 North 260 299 26,600 -435 Descending Cleveland Center
Sun 03:23:05 PM 39.7503 -80.1258 North 268 308 26,100 -484 Descending Cleveland Center
Sun 03:24:07 PM 39.8428 -80.1067 North 278 320 25,600 -484 Descending Cleveland Center
Sun 03:25:09 PM 39.9200 -80.0914 North 285 328 25,100 -581 Descending Cleveland Center
Sun 03:26:11 PM 39.9975 -80.0750 North 284 327 24,400 -581 Descending Cleveland Center
Sun 03:27:13 PM 40.0708 -80.0606 North 269 310 23,900 -624 Descending Cleveland Center
Sun 03:28:16 PM 40.1389 -80.0483 North 252 290 23,100 -624 Descending Cleveland Center
Sun 03:29:18 PM 40.2156 -80.0322 North 235 270 22,600 -484 Descending Cleveland Center
Sun 03:30:20 PM 40.2786 -80.0200 North 232 267 22,100 -774 Descending Cleveland Center
Sun 03:31:22 PM 40.3489 -80.0058 North 237 273 21,000 -774 Descending Cleveland Center
Sun 03:32:24 PM 40.4067 -79.9931 10° North 236 272 20,500 -532 Descending Cleveland Center
Sun 03:33:26 PM 40.4692 -79.9811 North 232 267 19,900 -726 Descending Cleveland Center
Sun 03:34:28 PM 40.5444 -79.9653 North 231 266 19,000 -726 Descending Cleveland Center
Sun 03:35:30 PM 40.6069 -79.9528 North 230 265 18,400 -581 Descending Cleveland Center
Sun 03:36:32 PM 40.6694 -79.9392 North 228 262 17,800 -629 Descending Cleveland Center
Sun 03:37:34 PM 40.7314 -79.9264 North 226 260 17,100 -726 Descending Cleveland Center
Sun 03:38:36 PM 40.7942 -79.9128 North 227 261 16,300 -720 Descending Cleveland Center
Sun 03:39:39 PM 40.8678 -79.8978 North 225 259 15,600 -576 Descending Cleveland Center
Sun 03:40:41 PM 40.9292 -79.8850 North 224 258 15,100 -726 Descending Cleveland Center
Sun 03:41:43 PM 40.9914 -79.8725 North 225 259 14,100 -1,113 Descending Cleveland Center
Sun 03:42:45 PM 41.0544 -79.8694 North 229 264 12,800 -1,403 Descending Cleveland Center
Sun 03:43:47 PM 41.1167 -79.8681 North 224 258 11,200 -1,548 Descending Cleveland Center
Sun 03:44:49 PM 41.1828 -79.8644 North 218 251 9,600 -1,645 Descending Cleveland Center
Sun 03:45:51 PM 41.2411 -79.8636 North 212 244 7,800 -1,597 Descending Cleveland Center
Sun 03:46:53 PM 41.3000 -79.8617 North 213 245 6,300 -1,548 Descending Cleveland Center
Sun 03:47:55 PM 41.3678 -79.8597 North 207 238 4,600 -1,065 Descending Cleveland Center
Sun 03:48:57 PM 41.4186 -79.8572 North 191 220 4,100 -435 Descending Cleveland Center
Sun 03:49:59 PM 41.4597 -79.8419 16° North 163 188 3,700 -387 Descending Cleveland Center

Login

Don't have an account? Register now (free) for customized features, flight alerts, and more!